createdAt,value
2022-08-19T00:00:00.216Z,59.8
2022-08-19T00:05:00.338Z,59.9
2022-08-19T00:10:00.156Z,59.7
2022-08-19T00:15:00.126Z,59.7
2022-08-19T00:20:00.159Z,59.8
2022-08-19T00:25:02.373Z,60.0
2022-08-19T00:30:00.204Z,60.0
2022-08-19T00:35:00.146Z,59.7
2022-08-19T00:45:00.152Z,59.7
2022-08-19T00:50:00.185Z,59.6
2022-08-19T00:55:00.163Z,59.7
2022-08-19T01:05:00.140Z,60.0
2022-08-19T01:10:00.249Z,60.0
2022-08-19T01:15:00.131Z,60.1
2022-08-19T01:25:00.116Z,59.8
2022-08-19T01:35:00.176Z,59.5
2022-08-19T01:45:00.114Z,59.5
2022-08-19T01:50:00.238Z,59.4
2022-08-19T01:55:00.131Z,59.5
2022-08-19T02:05:00.142Z,59.5
2022-08-19T02:15:00.126Z,60.2
2022-08-19T02:25:00.117Z,60.3
2022-08-19T02:35:00.129Z,60.5
2022-08-19T02:40:01.817Z,60.6
2022-08-19T02:45:00.109Z,60.7
2022-08-19T02:50:00.183Z,60.8
2022-08-19T02:55:00.104Z,60.9
2022-08-19T03:05:00.175Z,61.0
2022-08-19T03:10:00.215Z,61.0
2022-08-19T03:15:00.155Z,61.0
2022-08-19T03:25:00.157Z,61.2
2022-08-19T03:30:00.978Z,61.3
2022-08-19T03:35:01.038Z,61.4
2022-08-19T03:45:00.146Z,61.5
2022-08-19T03:55:00.143Z,61.6
2022-08-19T04:00:12.744Z,61.7
2022-08-19T04:05:00.146Z,61.9
2022-08-19T04:15:00.154Z,62.0
2022-08-19T04:20:00.674Z,62.0
2022-08-19T04:25:00.122Z,62.1
2022-08-19T04:35:16.671Z,62.2
2022-08-19T04:45:00.278Z,62.4
2022-08-19T04:50:02.762Z,62.4
2022-08-19T04:55:00.150Z,62.4
2022-08-19T05:00:00.243Z,62.5
2022-08-19T05:05:00.129Z,62.5
2022-08-19T05:15:00.140Z,62.5
2022-08-19T05:25:12.898Z,62.5
2022-08-19T05:35:00.121Z,62.6
2022-08-19T05:45:00.144Z,62.7
2022-08-19T05:55:00.156Z,62.7
2022-08-19T06:00:01.235Z,62.8
2022-08-19T06:05:00.135Z,62.8
2022-08-19T06:15:02.047Z,63.0
2022-08-19T06:25:00.152Z,63.1
2022-08-19T06:35:00.156Z,63.1
2022-08-19T06:40:02.319Z,63.2
2022-08-19T06:45:00.622Z,63.1
2022-08-19T06:55:00.167Z,63.1
2022-08-19T07:00:00.154Z,63.2
2022-08-19T07:05:01.696Z,63.3
2022-08-19T07:15:01.462Z,63.4
2022-08-19T07:20:09.359Z,63.3
2022-08-19T07:25:00.155Z,63.5
2022-08-19T07:35:00.108Z,63.1
2022-08-19T07:45:00.254Z,63.6
2022-08-19T07:50:00.179Z,63.7
2022-08-19T07:55:00.160Z,63.6
2022-08-19T08:05:00.154Z,63.3
2022-08-19T08:15:00.127Z,63.1
2022-08-19T08:25:00.166Z,62.8
2022-08-19T08:35:00.144Z,62.6
2022-08-19T08:40:00.421Z,62.6
2022-08-19T08:45:00.517Z,62.4
2022-08-19T08:55:00.172Z,62.3
2022-08-19T09:05:02.484Z,62.2
2022-08-19T09:15:00.127Z,62.1
2022-08-19T09:25:00.131Z,62.0
2022-08-19T09:35:00.165Z,62.0
2022-08-19T09:45:00.658Z,62.0
2022-08-19T09:50:00.202Z,61.9
2022-08-19T09:55:00.702Z,61.8
2022-08-19T10:05:01.297Z,61.7
2022-08-19T10:15:00.140Z,61.6
2022-08-19T10:25:00.154Z,61.6
2022-08-19T10:35:00.151Z,61.6
2022-08-19T10:45:01.340Z,61.6
2022-08-19T10:55:08.434Z,61.5
2022-08-19T11:05:12.831Z,61.5
2022-08-19T11:15:00.134Z,61.5
2022-08-19T11:20:00.156Z,61.4
2022-08-19T11:25:00.120Z,61.4
2022-08-19T11:30:00.170Z,61.3
2022-08-19T11:35:00.393Z,61.3
2022-08-19T11:40:00.382Z,61.3
2022-08-19T11:45:00.157Z,61.3
2022-08-19T11:50:00.183Z,61.3
2022-08-19T11:55:00.126Z,61.3
2022-08-19T12:00:00.177Z,61.2
2022-08-19T12:05:00.135Z,61.3
2022-08-19T12:10:00.145Z,61.2
2022-08-19T12:15:00.147Z,61.2
2022-08-19T12:25:00.129Z,61.1
2022-08-19T12:30:01.080Z,61.0
2022-08-19T12:35:00.123Z,61.0
2022-08-19T12:45:00.197Z,61.1
2022-08-19T12:50:00.167Z,61.0
2022-08-19T12:55:00.150Z,61.0
2022-08-19T13:05:01.702Z,60.9
2022-08-19T13:15:00.500Z,60.8
2022-08-19T13:20:00.188Z,60.8
2022-08-19T13:25:00.107Z,60.8
2022-08-19T13:30:00.201Z,60.8
2022-08-19T13:35:00.188Z,60.8
2022-08-19T13:45:00.158Z,60.8
2022-08-19T13:55:00.149Z,61.1
2022-08-19T14:05:00.138Z,61.1
2022-08-19T14:15:01.094Z,60.8
2022-08-19T14:25:00.147Z,60.8
2022-08-19T14:35:00.123Z,60.6
2022-08-19T14:45:00.149Z,60.5
2022-08-19T14:55:02.340Z,60.4
2022-08-19T15:05:00.140Z,60.4
2022-08-19T15:10:00.216Z,60.4
2022-08-19T15:15:00.374Z,60.4
2022-08-19T15:20:00.398Z,60.4
2022-08-19T15:25:01.036Z,60.3
2022-08-19T15:35:00.118Z,60.2
2022-08-19T15:45:02.381Z,60.2
2022-08-19T15:55:00.143Z,60.4
2022-08-19T16:05:00.118Z,61.0
2022-08-19T16:15:00.148Z,62.0
2022-08-19T16:25:00.130Z,62.3
2022-08-19T16:35:06.598Z,62.5
2022-08-19T16:45:00.134Z,62.5
2022-08-19T16:55:00.117Z,63.0
2022-08-19T17:05:00.132Z,63.0
2022-08-19T17:15:00.187Z,62.8
2022-08-19T17:25:00.140Z,62.7
2022-08-19T17:35:00.121Z,62.6
2022-08-19T17:45:00.158Z,62.4
2022-08-19T17:55:00.143Z,62.4
2022-08-19T18:05:00.137Z,62.3
2022-08-19T18:15:00.139Z,62.4
2022-08-19T18:25:00.146Z,62.3
2022-08-19T18:35:00.131Z,62.4
2022-08-19T18:40:01.388Z,62.6
2022-08-19T18:45:00.523Z,62.6
2022-08-19T18:55:00.122Z,62.9
2022-08-19T19:05:06.945Z,63.2
2022-08-19T19:10:00.176Z,63.6
2022-08-19T19:15:01.019Z,63.7
2022-08-19T19:25:00.129Z,63.8
2022-08-19T19:35:00.144Z,63.9
2022-08-19T19:45:01.577Z,64.2
2022-08-19T19:55:00.103Z,63.9
2022-08-19T20:05:00.119Z,64.1
2022-08-19T20:15:00.134Z,64.2
2022-08-19T20:20:00.178Z,64.3
2022-08-19T20:25:00.135Z,64.2
2022-08-19T20:30:00.197Z,64.1
2022-08-19T20:35:00.124Z,64.3
2022-08-19T20:45:00.157Z,64.3
2022-08-19T20:55:00.128Z,64.3
2022-08-19T21:05:00.444Z,63.9
2022-08-19T21:15:00.163Z,64.0
2022-08-19T21:25:00.158Z,64.1
2022-08-19T21:35:00.125Z,64.4
2022-08-19T21:40:00.385Z,64.4
2022-08-19T21:45:00.147Z,64.5
2022-08-19T21:55:00.134Z,64.2
2022-08-19T22:05:00.162Z,64.2
2022-08-19T22:15:00.156Z,64.3
2022-08-19T22:20:01.472Z,64.2
2022-08-19T22:25:00.139Z,64.4
2022-08-19T22:35:00.124Z,64.2
2022-08-19T22:45:00.145Z,64.2
2022-08-19T22:55:00.125Z,64.5
2022-08-19T23:00:01.484Z,64.3
2022-08-19T23:05:00.143Z,64.5
2022-08-19T23:15:00.155Z,64.5
2022-08-19T23:25:00.166Z,64.8
2022-08-19T23:35:00.131Z,64.5
2022-08-19T23:45:00.406Z,64.5
2022-08-19T23:50:00.134Z,64.5
2022-08-19T23:55:00.128Z,64.5
